Peace River Airport
CYPE : now visible

Airfield :











YOU CAN JOIN US ON...

 
LOGIN :

Register | Disclaimer

   EN    FR    IT 

 









Legend :    VFR   Marginal VFR   IFR   Intensive IFR   Very Intensive IFR
Visi :
Ceiling :
>= 8 km
>= 3000ft
5 to 8 km
1000 to 3000 ft
1500m to 5 km
500 to 1000 ft
800 to 1500m
200 to 500 ft
< 800m
< 200 ft
Symbols :   Thunderstorms  Fog  Heavy snow  Heavy precipitations  Wind > 20 kt






- Airport Elevation : 1873 ft
- IATA code : YPE


CYPE - Peace River

CURRENT METAR :
  • 021600Z 13006KT 060V150 15SM FEW020 FEW210 14/09 A3014 RMK CU1CI2 CU TR SLP222 DENSITY ALT 2000FT

EXPIRED METARs :
  • 021500Z VRB03KT 15SM FEW120 BKN200 13/09 A3014 RMK AC1CI6 AC TR SLP222
  • 020300Z 22008KT 15SM FEW075 BKN230 14/08 A3017 RMK AC2CI4 SLP231 DENSITY ALT 1900FT
  • 021400Z VRB03KT 15SM FEW120 BKN220 09/08 A3014 RMK AC1CI5 AC TR FG IN VLY E-SE SLP224

TAF TAF CYPE
Valid from the 02 at 13:00 until the 03 at 01:00 UTC


021240Z 0213/0301 33010KT P6SM FEW120
BECMG 0214/0216 VRB03KT
FM021800 VRB03KT P6SM BKN040
BECMG 0219/0221 30006KT RMK NXT FCST BY 021900Z
CZEG FIR / North America



MET'MAP, your aeronautical weather chart ! - Copyright ORBIFLY December 2007 - Disclaimer

ORBIFLY MET'MAP TEAM :

Programming & Development : Alexandra Zaïnal
Original concept : Baudouin d'Aumeries
Technical & hardware support : Manuel Goepfert
Assistance : Marc-Olivier Méhu




SOURCES & CREDITS :

   NOAA       Earth
Advisory